sensor_id;sensor_type;location;lat;lon;timestamp;temperature;humidity
4795;DHT22;2411;47.060;15.064;2023-08-31T00:00:10;14.10;99.90
4795;DHT22;2411;47.060;15.064;2023-08-31T00:02:41;14.60;99.90
4795;DHT22;2411;47.060;15.064;2023-08-31T00:05:09;14.20;99.90
4795;DHT22;2411;47.060;15.064;2023-08-31T00:07:36;13.70;99.90
4795;DHT22;2411;47.060;15.064;2023-08-31T00:10:03;13.90;99.90
4795;DHT22;2411;47.060;15.064;2023-08-31T00:12:36;13.70;99.90
4795;DHT22;2411;47.060;15.064;2023-08-31T00:15:04;13.70;99.90
4795;DHT22;2411;47.060;15.064;2023-08-31T00:17:31;13.90;99.90
4795;DHT22;2411;47.060;15.064;2023-08-31T00:19:59;13.90;99.90
4795;DHT22;2411;47.060;15.064;2023-08-31T00:22:27;13.70;99.90
4795;DHT22;2411;47.060;15.064;2023-08-31T00:24:54;13.70;99.90
4795;DHT22;2411;47.060;15.064;2023-08-31T00:27:21;14.30;99.90
4795;DHT22;2411;47.060;15.064;2023-08-31T00:29:48;14.10;99.90
4795;DHT22;2411;47.060;15.064;2023-08-31T00:32:17;14.30;99.90
4795;DHT22;2411;47.060;15.064;2023-08-31T00:34:45;13.90;99.90
4795;DHT22;2411;47.060;15.064;2023-08-31T00:37:12;13.40;99.90
4795;DHT22;2411;47.060;15.064;2023-08-31T00:39:40;14.20;99.90
4795;DHT22;2411;47.060;15.064;2023-08-31T00:42:08;13.50;99.90
4795;DHT22;2411;47.060;15.064;2023-08-31T00:44:35;13.30;99.90
4795;DHT22;2411;47.060;15.064;2023-08-31T00:47:02;13.50;99.90
4795;DHT22;2411;47.060;15.064;2023-08-31T00:49:30;13.20;99.90
4795;DHT22;2411;47.060;15.064;2023-08-31T00:51:57;13.30;99.90
4795;DHT22;2411;47.060;15.064;2023-08-31T00:54:24;13.20;99.90
4795;DHT22;2411;47.060;15.064;2023-08-31T00:56:53;13.40;99.90
4795;DHT22;2411;47.060;15.064;2023-08-31T00:59:21;14.20;99.90
4795;DHT22;2411;47.060;15.064;2023-08-31T01:10:43;14.20;99.90
4795;DHT22;2411;47.060;15.064;2023-08-31T01:13:21;14.80;99.90
4795;DHT22;2411;47.060;15.064;2023-08-31T01:15:53;13.70;99.90
4795;DHT22;2411;47.060;15.064;2023-08-31T01:18:22;13.70;99.90
4795;DHT22;2411;47.060;15.064;2023-08-31T01:23:52;13.40;99.90
4795;DHT22;2411;47.060;15.064;2023-08-31T01:26:23;13.40;99.90
4795;DHT22;2411;47.060;15.064;2023-08-31T01:28:52;13.20;99.90
4795;DHT22;2411;47.060;15.064;2023-08-31T01:31:19;13.30;99.90
4795;DHT22;2411;47.060;15.064;2023-08-31T01:33:48;13.90;99.90
4795;DHT22;2411;47.060;15.064;2023-08-31T01:36:25;14.10;99.90
4795;DHT22;2411;47.060;15.064;2023-08-31T01:39:11;14.00;99.90
4795;DHT22;2411;47.060;15.064;2023-08-31T01:41:44;14.10;99.90
4795;DHT22;2411;47.060;15.064;2023-08-31T01:44:15;14.20;99.90
4795;DHT22;2411;47.060;15.064;2023-08-31T01:46:46;14.50;99.90
4795;DHT22;2411;47.060;15.064;2023-08-31T01:49:13;13.40;99.90
4795;DHT22;2411;47.060;15.064;2023-08-31T01:51:41;13.30;99.90
4795;DHT22;2411;47.060;15.064;2023-08-31T01:54:08;13.40;99.90
4795;DHT22;2411;47.060;15.064;2023-08-31T01:56:36;13.20;99.90
4795;DHT22;2411;47.060;15.064;2023-08-31T01:59:03;13.40;99.90
4795;DHT22;2411;47.060;15.064;2023-08-31T02:01:32;13.40;99.90
4795;DHT22;2411;47.060;15.064;2023-08-31T02:04:00;13.40;99.90
4795;DHT22;2411;47.060;15.064;2023-08-31T02:06:27;13.70;99.90
4795;DHT22;2411;47.060;15.064;2023-08-31T02:08:54;14.50;99.90
4795;DHT22;2411;47.060;15.064;2023-08-31T02:11:21;14.10;99.90
4795;DHT22;2411;47.060;15.064;2023-08-31T02:13:49;14.10;99.90
4795;DHT22;2411;47.060;15.064;2023-08-31T02:16:16;13.50;99.90
4795;DHT22;2411;47.060;15.064;2023-08-31T02:18:43;13.70;99.90
4795;DHT22;2411;47.060;15.064;2023-08-31T02:21:10;13.20;99.90
4795;DHT22;2411;47.060;15.064;2023-08-31T02:23:37;13.50;99.90
4795;DHT22;2411;47.060;15.064;2023-08-31T02:26:05;13.20;99.90
4795;DHT22;2411;47.060;15.064;2023-08-31T02:28:32;13.30;99.90
4795;DHT22;2411;47.060;15.064;2023-08-31T02:31:02;14.10;99.90
4795;DHT22;2411;47.060;15.064;2023-08-31T02:33:29;14.00;99.90
4795;DHT22;2411;47.060;15.064;2023-08-31T02:35:57;13.50;99.90
4795;DHT22;2411;47.060;15.064;2023-08-31T02:38:24;13.90;99.90
4795;DHT22;2411;47.060;15.064;2023-08-31T02:40:51;14.20;99.90
4795;DHT22;2411;47.060;15.064;2023-08-31T02:43:19;14.30;99.90
4795;DHT22;2411;47.060;15.064;2023-08-31T02:45:46;13.90;99.90
4795;DHT22;2411;47.060;15.064;2023-08-31T02:48:13;14.10;99.90
4795;DHT22;2411;47.060;15.064;2023-08-31T02:50:41;13.80;99.90
4795;DHT22;2411;47.060;15.064;2023-08-31T02:53:08;13.50;99.90
4795;DHT22;2411;47.060;15.064;2023-08-31T02:55:36;13.70;99.90
4795;DHT22;2411;47.060;15.064;2023-08-31T02:58:03;13.60;99.90
4795;DHT22;2411;47.060;15.064;2023-08-31T03:00:30;13.40;99.90
4795;DHT22;2411;47.060;15.064;2023-08-31T03:02:58;13.70;99.90
4795;DHT22;2411;47.060;15.064;2023-08-31T03:05:25;13.80;99.90
4795;DHT22;2411;47.060;15.064;2023-08-31T03:07:53;13.20;99.90
4795;DHT22;2411;47.060;15.064;2023-08-31T03:10:21;13.50;99.90
4795;DHT22;2411;47.060;15.064;2023-08-31T03:12:48;13.00;99.90
4795;DHT22;2411;47.060;15.064;2023-08-31T03:15:15;13.40;99.90
4795;DHT22;2411;47.060;15.064;2023-08-31T03:17:43;12.70;99.90
4795;DHT22;2411;47.060;15.064;2023-08-31T03:20:10;13.60;99.90
4795;DHT22;2411;47.060;15.064;2023-08-31T03:22:37;13.40;99.90
4795;DHT22;2411;47.060;15.064;2023-08-31T03:25:05;14.00;99.90
4795;DHT22;2411;47.060;15.064;2023-08-31T03:27:32;13.30;99.90
4795;DHT22;2411;47.060;15.064;2023-08-31T03:29:59;13.70;99.90
4795;DHT22;2411;47.060;15.064;2023-08-31T03:32:26;13.90;99.90
4795;DHT22;2411;47.060;15.064;2023-08-31T03:34:54;13.30;99.90
4795;DHT22;2411;47.060;15.064;2023-08-31T03:37:21;13.80;99.90
4795;DHT22;2411;47.060;15.064;2023-08-31T03:39:48;13.90;99.90
4795;DHT22;2411;47.060;15.064;2023-08-31T03:42:16;13.90;99.90
4795;DHT22;2411;47.060;15.064;2023-08-31T03:44:43;13.30;99.90
4795;DHT22;2411;47.060;15.064;2023-08-31T03:47:10;13.20;99.90
4795;DHT22;2411;47.060;15.064;2023-08-31T03:49:37;13.10;99.90
4795;DHT22;2411;47.060;15.064;2023-08-31T03:52:05;13.10;99.90
4795;DHT22;2411;47.060;15.064;2023-08-31T03:54:32;13.10;99.90
4795;DHT22;2411;47.060;15.064;2023-08-31T03:56:59;12.80;99.90
4795;DHT22;2411;47.060;15.064;2023-08-31T03:59:26;12.50;99.90
4795;DHT22;2411;47.060;15.064;2023-08-31T04:01:54;13.00;99.90
4795;DHT22;2411;47.060;15.064;2023-08-31T04:04:21;12.40;99.90
4795;DHT22;2411;47.060;15.064;2023-08-31T04:06:48;13.00;99.90
4795;DHT22;2411;47.060;15.064;2023-08-31T04:09:15;13.00;99.90
4795;DHT22;2411;47.060;15.064;2023-08-31T04:11:43;12.50;99.90
4795;DHT22;2411;47.060;15.064;2023-08-31T04:14:10;13.50;99.90
4795;DHT22;2411;47.060;15.064;2023-08-31T04:16:37;14.30;99.90
4795;DHT22;2411;47.060;15.064;2023-08-31T04:19:04;14.10;99.90
4795;DHT22;2411;47.060;15.064;2023-08-31T04:21:31;14.10;99.90
4795;DHT22;2411;47.060;15.064;2023-08-31T04:23:59;14.00;99.90
4795;DHT22;2411;47.060;15.064;2023-08-31T04:26:27;13.80;99.90
4795;DHT22;2411;47.060;15.064;2023-08-31T04:28:55;13.70;99.90
4795;DHT22;2411;47.060;15.064;2023-08-31T04:31:22;13.50;99.90
4795;DHT22;2411;47.060;15.064;2023-08-31T04:33:49;13.70;99.90
4795;DHT22;2411;47.060;15.064;2023-08-31T04:36:21;13.70;99.90
4795;DHT22;2411;47.060;15.064;2023-08-31T04:38:49;12.80;99.90
4795;DHT22;2411;47.060;15.064;2023-08-31T04:41:16;13.00;99.90
4795;DHT22;2411;47.060;15.064;2023-08-31T04:43:43;13.00;99.90
4795;DHT22;2411;47.060;15.064;2023-08-31T04:46:10;13.20;99.90
4795;DHT22;2411;47.060;15.064;2023-08-31T04:48:38;13.60;99.90
4795;DHT22;2411;47.060;15.064;2023-08-31T04:51:06;13.50;99.90
4795;DHT22;2411;47.060;15.064;2023-08-31T04:53:33;13.60;99.90
4795;DHT22;2411;47.060;15.064;2023-08-31T04:56:00;13.40;99.90
4795;DHT22;2411;47.060;15.064;2023-08-31T04:58:28;13.10;99.90
4795;DHT22;2411;47.060;15.064;2023-08-31T05:00:55;12.70;99.90
4795;DHT22;2411;47.060;15.064;2023-08-31T05:03:22;12.40;99.90
4795;DHT22;2411;47.060;15.064;2023-08-31T05:05:49;13.00;99.90
4795;DHT22;2411;47.060;15.064;2023-08-31T05:08:17;12.50;99.90
4795;DHT22;2411;47.060;15.064;2023-08-31T05:10:45;12.50;99.90
4795;DHT22;2411;47.060;15.064;2023-08-31T05:13:12;12.60;99.90
4795;DHT22;2411;47.060;15.064;2023-08-31T05:15:39;12.60;99.90
4795;DHT22;2411;47.060;15.064;2023-08-31T05:18:07;12.60;99.90
4795;DHT22;2411;47.060;15.064;2023-08-31T05:20:35;12.90;99.90
4795;DHT22;2411;47.060;15.064;2023-08-31T05:23:03;12.40;99.90
4795;DHT22;2411;47.060;15.064;2023-08-31T05:25:30;12.50;99.90
4795;DHT22;2411;47.060;15.064;2023-08-31T05:27:57;12.60;99.90
4795;DHT22;2411;47.060;15.064;2023-08-31T05:30:24;13.00;99.90
4795;DHT22;2411;47.060;15.064;2023-08-31T05:32:52;12.40;99.90
4795;DHT22;2411;47.060;15.064;2023-08-31T05:35:19;12.50;99.90
4795;DHT22;2411;47.060;15.064;2023-08-31T05:37:46;12.60;99.90
4795;DHT22;2411;47.060;15.064;2023-08-31T05:40:14;13.00;99.90
4795;DHT22;2411;47.060;15.064;2023-08-31T05:42:41;13.30;99.90
4795;DHT22;2411;47.060;15.064;2023-08-31T05:45:09;13.40;99.90
4795;DHT22;2411;47.060;15.064;2023-08-31T05:47:38;13.70;99.90
4795;DHT22;2411;47.060;15.064;2023-08-31T05:50:06;13.40;99.90
4795;DHT22;2411;47.060;15.064;2023-08-31T05:52:33;13.90;99.90
4795;DHT22;2411;47.060;15.064;2023-08-31T05:55:00;14.00;99.90
4795;DHT22;2411;47.060;15.064;2023-08-31T05:57:27;14.10;99.90
4795;DHT22;2411;47.060;15.064;2023-08-31T05:59:56;14.20;99.90
4795;DHT22;2411;47.060;15.064;2023-08-31T06:02:23;13.70;99.90
4795;DHT22;2411;47.060;15.064;2023-08-31T06:04:50;13.90;99.90
4795;DHT22;2411;47.060;15.064;2023-08-31T06:07:17;14.40;99.90
4795;DHT22;2411;47.060;15.064;2023-08-31T06:09:45;14.40;99.90
4795;DHT22;2411;47.060;15.064;2023-08-31T06:12:12;14.40;99.90
4795;DHT22;2411;47.060;15.064;2023-08-31T06:14:39;14.10;99.90
4795;DHT22;2411;47.060;15.064;2023-08-31T06:17:06;14.80;99.90
4795;DHT22;2411;47.060;15.064;2023-08-31T06:19:35;15.10;99.90
4795;DHT22;2411;47.060;15.064;2023-08-31T06:22:03;15.60;99.90
4795;DHT22;2411;47.060;15.064;2023-08-31T06:24:30;15.00;99.90
4795;DHT22;2411;47.060;15.064;2023-08-31T06:26:59;15.60;99.90
4795;DHT22;2411;47.060;15.064;2023-08-31T06:29:27;15.50;99.90
4795;DHT22;2411;47.060;15.064;2023-08-31T06:31:54;15.60;99.90
4795;DHT22;2411;47.060;15.064;2023-08-31T06:34:21;16.00;99.90
4795;DHT22;2411;47.060;15.064;2023-08-31T06:36:49;15.80;99.90
4795;DHT22;2411;47.060;15.064;2023-08-31T06:39:16;16.00;99.90
4795;DHT22;2411;47.060;15.064;2023-08-31T06:41:43;15.90;99.90
4795;DHT22;2411;47.060;15.064;2023-08-31T06:44:11;15.90;99.90
4795;DHT22;2411;47.060;15.064;2023-08-31T06:46:38;16.10;99.90
4795;DHT22;2411;47.060;15.064;2023-08-31T06:49:05;16.40;99.90
4795;DHT22;2411;47.060;15.064;2023-08-31T06:51:33;16.00;99.90
4795;DHT22;2411;47.060;15.064;2023-08-31T06:54:00;16.10;99.90
4795;DHT22;2411;47.060;15.064;2023-08-31T06:56:37;15.90;99.90
4795;DHT22;2411;47.060;15.064;2023-08-31T06:59:04;16.50;99.90
4795;DHT22;2411;47.060;15.064;2023-08-31T07:01:31;16.00;99.90
4795;DHT22;2411;47.060;15.064;2023-08-31T07:03:59;16.00;99.90
4795;DHT22;2411;47.060;15.064;2023-08-31T07:06:27;16.00;99.90
4795;DHT22;2411;47.060;15.064;2023-08-31T07:08:54;16.20;99.90
4795;DHT22;2411;47.060;15.064;2023-08-31T07:11:21;16.10;99.90
4795;DHT22;2411;47.060;15.064;2023-08-31T07:13:48;16.00;99.90
4795;DHT22;2411;47.060;15.064;2023-08-31T07:16:16;16.00;99.90
4795;DHT22;2411;47.060;15.064;2023-08-31T07:18:43;16.10;99.90
4795;DHT22;2411;47.060;15.064;2023-08-31T07:21:10;15.80;99.90
4795;DHT22;2411;47.060;15.064;2023-08-31T07:23:40;16.30;99.90
4795;DHT22;2411;47.060;15.064;2023-08-31T07:26:07;16.20;99.90
4795;DHT22;2411;47.060;15.064;2023-08-31T07:28:34;15.60;99.90
4795;DHT22;2411;47.060;15.064;2023-08-31T07:31:05;15.90;99.90
4795;DHT22;2411;47.060;15.064;2023-08-31T07:33:34;16.50;99.90
4795;DHT22;2411;47.060;15.064;2023-08-31T07:36:04;16.50;99.90
4795;DHT22;2411;47.060;15.064;2023-08-31T07:38:33;16.20;99.90
4795;DHT22;2411;47.060;15.064;2023-08-31T07:41:00;16.00;99.90
4795;DHT22;2411;47.060;15.064;2023-08-31T07:43:27;16.20;99.90
4795;DHT22;2411;47.060;15.064;2023-08-31T07:45:55;16.70;99.90
4795;DHT22;2411;47.060;15.064;2023-08-31T07:48:22;16.70;99.90
4795;DHT22;2411;47.060;15.064;2023-08-31T07:50:50;16.40;99.90
4795;DHT22;2411;47.060;15.064;2023-08-31T07:53:17;16.50;99.90
4795;DHT22;2411;47.060;15.064;2023-08-31T07:55:51;16.50;99.90
4795;DHT22;2411;47.060;15.064;2023-08-31T07:58:20;16.70;99.90
4795;DHT22;2411;47.060;15.064;2023-08-31T08:00:48;17.00;99.90
4795;DHT22;2411;47.060;15.064;2023-08-31T08:03:16;16.80;99.90
4795;DHT22;2411;47.060;15.064;2023-08-31T08:05:43;16.90;99.90
4795;DHT22;2411;47.060;15.064;2023-08-31T08:08:11;17.10;99.90
4795;DHT22;2411;47.060;15.064;2023-08-31T08:10:38;17.10;99.90
4795;DHT22;2411;47.060;15.064;2023-08-31T08:13:05;17.20;99.90
4795;DHT22;2411;47.060;15.064;2023-08-31T08:15:33;17.50;99.90
4795;DHT22;2411;47.060;15.064;2023-08-31T08:18:00;17.20;99.90
4795;DHT22;2411;47.060;15.064;2023-08-31T08:20:28;17.40;99.90
4795;DHT22;2411;47.060;15.064;2023-08-31T08:22:55;17.50;99.90
4795;DHT22;2411;47.060;15.064;2023-08-31T08:25:24;17.60;99.90
4795;DHT22;2411;47.060;15.064;2023-08-31T08:27:51;17.90;99.90
4795;DHT22;2411;47.060;15.064;2023-08-31T08:30:19;17.80;99.90
4795;DHT22;2411;47.060;15.064;2023-08-31T08:32:46;17.90;99.90
4795;DHT22;2411;47.060;15.064;2023-08-31T08:35:13;18.10;99.90
4795;DHT22;2411;47.060;15.064;2023-08-31T08:37:41;18.20;99.90
4795;DHT22;2411;47.060;15.064;2023-08-31T08:40:10;18.20;99.90
4795;DHT22;2411;47.060;15.064;2023-08-31T08:42:47;18.20;99.90
4795;DHT22;2411;47.060;15.064;2023-08-31T08:45:15;18.30;99.90
4795;DHT22;2411;47.060;15.064;2023-08-31T08:47:43;18.60;99.90
4795;DHT22;2411;47.060;15.064;2023-08-31T08:50:12;18.40;99.90
4795;DHT22;2411;47.060;15.064;2023-08-31T08:52:40;18.40;99.90
4795;DHT22;2411;47.060;15.064;2023-08-31T08:55:09;18.40;99.90
4795;DHT22;2411;47.060;15.064;2023-08-31T08:57:36;18.40;99.90
4795;DHT22;2411;47.060;15.064;2023-08-31T09:00:07;18.70;99.90
4795;DHT22;2411;47.060;15.064;2023-08-31T09:02:34;18.90;99.90
4795;DHT22;2411;47.060;15.064;2023-08-31T09:05:02;19.00;99.90
4795;DHT22;2411;47.060;15.064;2023-08-31T09:07:30;19.10;99.90
4795;DHT22;2411;47.060;15.064;2023-08-31T09:09:59;19.00;99.90
4795;DHT22;2411;47.060;15.064;2023-08-31T09:12:26;19.20;99.90
4795;DHT22;2411;47.060;15.064;2023-08-31T09:15:04;19.30;99.90
4795;DHT22;2411;47.060;15.064;2023-08-31T09:17:42;19.50;99.90
4795;DHT22;2411;47.060;15.064;2023-08-31T09:20:11;19.50;99.90
4795;DHT22;2411;47.060;15.064;2023-08-31T09:22:42;19.30;99.90
4795;DHT22;2411;47.060;15.064;2023-08-31T09:25:12;19.60;99.90
4795;DHT22;2411;47.060;15.064;2023-08-31T09:27:39;19.80;99.90
4795;DHT22;2411;47.060;15.064;2023-08-31T09:30:07;19.90;99.90
4795;DHT22;2411;47.060;15.064;2023-08-31T09:32:35;20.10;99.90
4795;DHT22;2411;47.060;15.064;2023-08-31T09:35:03;20.20;99.90
4795;DHT22;2411;47.060;15.064;2023-08-31T09:37:56;20.20;99.90
4795;DHT22;2411;47.060;15.064;2023-08-31T09:40:27;20.40;99.90
4795;DHT22;2411;47.060;15.064;2023-08-31T09:42:54;20.80;99.90
4795;DHT22;2411;47.060;15.064;2023-08-31T09:45:30;20.90;99.90
4795;DHT22;2411;47.060;15.064;2023-08-31T09:48:13;20.60;99.90
4795;DHT22;2411;47.060;15.064;2023-08-31T09:50:44;21.10;99.90
4795;DHT22;2411;47.060;15.064;2023-08-31T09:53:16;20.80;99.90
4795;DHT22;2411;47.060;15.064;2023-08-31T09:55:44;20.80;99.90
4795;DHT22;2411;47.060;15.064;2023-08-31T09:58:16;21.10;99.90
4795;DHT22;2411;47.060;15.064;2023-08-31T10:00:46;21.00;99.90
4795;DHT22;2411;47.060;15.064;2023-08-31T10:03:13;21.20;99.90
4795;DHT22;2411;47.060;15.064;2023-08-31T10:05:47;21.60;99.90
4795;DHT22;2411;47.060;15.064;2023-08-31T10:08:15;21.10;99.90
4795;DHT22;2411;47.060;15.064;2023-08-31T10:10:44;21.20;99.90
4795;DHT22;2411;47.060;15.064;2023-08-31T10:13:12;21.50;99.90
4795;DHT22;2411;47.060;15.064;2023-08-31T10:15:41;21.70;99.90
4795;DHT22;2411;47.060;15.064;2023-08-31T10:18:10;21.90;99.90
4795;DHT22;2411;47.060;15.064;2023-08-31T10:20:37;21.40;99.90
4795;DHT22;2411;47.060;15.064;2023-08-31T10:23:08;21.80;99.90
4795;DHT22;2411;47.060;15.064;2023-08-31T10:28:22;21.60;99.90
4795;DHT22;2411;47.060;15.064;2023-08-31T10:31:06;22.00;99.90
4795;DHT22;2411;47.060;15.064;2023-08-31T10:33:41;21.40;99.90
4795;DHT22;2411;47.060;15.064;2023-08-31T10:36:15;20.80;99.90
4795;DHT22;2411;47.060;15.064;2023-08-31T10:39:00;20.50;99.90
4795;DHT22;2411;47.060;15.064;2023-08-31T10:41:35;20.20;99.90
4795;DHT22;2411;47.060;15.064;2023-08-31T10:44:22;20.00;99.90
4795;DHT22;2411;47.060;15.064;2023-08-31T10:46:51;19.70;99.90
4795;DHT22;2411;47.060;15.064;2023-08-31T10:49:20;19.70;99.90
4795;DHT22;2411;47.060;15.064;2023-08-31T10:51:50;20.00;99.90
4795;DHT22;2411;47.060;15.064;2023-08-31T10:54:22;19.60;99.90
4795;DHT22;2411;47.060;15.064;2023-08-31T10:59:25;19.70;99.90
4795;DHT22;2411;47.060;15.064;2023-08-31T11:01:53;19.90;99.90
4795;DHT22;2411;47.060;15.064;2023-08-31T11:04:25;20.10;99.90
4795;DHT22;2411;47.060;15.064;2023-08-31T11:07:33;20.40;99.90
4795;DHT22;2411;47.060;15.064;2023-08-31T11:10:23;20.90;99.90
4795;DHT22;2411;47.060;15.064;2023-08-31T11:12:56;20.40;99.90
4795;DHT22;2411;47.060;15.064;2023-08-31T11:15:26;21.20;99.90
4795;DHT22;2411;47.060;15.064;2023-08-31T11:17:54;21.30;99.90
4795;DHT22;2411;47.060;15.064;2023-08-31T11:20:24;21.70;99.90
4795;DHT22;2411;47.060;15.064;2023-08-31T11:22:55;21.70;99.90
4795;DHT22;2411;47.060;15.064;2023-08-31T11:25:23;21.80;99.90
4795;DHT22;2411;47.060;15.064;2023-08-31T11:30:25;22.00;99.90
4795;DHT22;2411;47.060;15.064;2023-08-31T11:32:53;22.10;99.90
4795;DHT22;2411;47.060;15.064;2023-08-31T11:35:22;22.20;99.90
4795;DHT22;2411;47.060;15.064;2023-08-31T11:37:52;22.10;99.90
4795;DHT22;2411;47.060;15.064;2023-08-31T11:40:19;22.10;99.90
4795;DHT22;2411;47.060;15.064;2023-08-31T11:42:48;22.10;99.90
4795;DHT22;2411;47.060;15.064;2023-08-31T11:45:17;21.70;99.90
4795;DHT22;2411;47.060;15.064;2023-08-31T11:47:46;21.80;99.90
4795;DHT22;2411;47.060;15.064;2023-08-31T11:50:16;21.50;99.90
4795;DHT22;2411;47.060;15.064;2023-08-31T11:52:44;21.30;99.90
4795;DHT22;2411;47.060;15.064;2023-08-31T11:55:14;21.40;99.90
4795;DHT22;2411;47.060;15.064;2023-08-31T11:57:51;21.30;99.90
4795;DHT22;2411;47.060;15.064;2023-08-31T12:00:19;21.50;99.90
4795;DHT22;2411;47.060;15.064;2023-08-31T12:03:02;21.40;99.90
4795;DHT22;2411;47.060;15.064;2023-08-31T12:05:48;21.00;99.90
4795;DHT22;2411;47.060;15.064;2023-08-31T12:08:15;20.80;99.90
4795;DHT22;2411;47.060;15.064;2023-08-31T12:10:46;21.00;99.90
4795;DHT22;2411;47.060;15.064;2023-08-31T12:13:14;20.60;99.90
4795;DHT22;2411;47.060;15.064;2023-08-31T12:15:43;21.00;99.90
4795;DHT22;2411;47.060;15.064;2023-08-31T12:18:13;20.90;99.90
4795;DHT22;2411;47.060;15.064;2023-08-31T12:20:47;20.50;99.90
4795;DHT22;2411;47.060;15.064;2023-08-31T12:23:15;20.70;99.90
4795;DHT22;2411;47.060;15.064;2023-08-31T12:25:53;20.90;99.90
4795;DHT22;2411;47.060;15.064;2023-08-31T12:28:22;20.60;99.90
4795;DHT22;2411;47.060;15.064;2023-08-31T12:30:51;20.80;99.90
4795;DHT22;2411;47.060;15.064;2023-08-31T12:33:20;21.50;99.90
4795;DHT22;2411;47.060;15.064;2023-08-31T12:35:48;21.70;99.90
4795;DHT22;2411;47.060;15.064;2023-08-31T12:38:16;22.10;99.90
4795;DHT22;2411;47.060;15.064;2023-08-31T12:40:44;22.60;99.90
4795;DHT22;2411;47.060;15.064;2023-08-31T12:43:12;22.30;99.90
4795;DHT22;2411;47.060;15.064;2023-08-31T12:45:39;22.50;99.90
4795;DHT22;2411;47.060;15.064;2023-08-31T12:48:07;22.00;99.90
4795;DHT22;2411;47.060;15.064;2023-08-31T12:50:34;21.50;99.90
4795;DHT22;2411;47.060;15.064;2023-08-31T12:53:01;21.40;99.90
4795;DHT22;2411;47.060;15.064;2023-08-31T12:55:30;20.90;99.90
4795;DHT22;2411;47.060;15.064;2023-08-31T12:57:57;21.00;99.90
4795;DHT22;2411;47.060;15.064;2023-08-31T13:00:25;20.90;99.90
4795;DHT22;2411;47.060;15.064;2023-08-31T13:02:52;20.60;99.90
4795;DHT22;2411;47.060;15.064;2023-08-31T13:05:20;20.60;99.90
4795;DHT22;2411;47.060;15.064;2023-08-31T13:07:47;20.40;99.90
4795;DHT22;2411;47.060;15.064;2023-08-31T13:10:15;20.90;99.90
4795;DHT22;2411;47.060;15.064;2023-08-31T13:12:42;20.70;99.90
4795;DHT22;2411;47.060;15.064;2023-08-31T13:15:10;21.30;99.90
4795;DHT22;2411;47.060;15.064;2023-08-31T13:17:37;21.10;99.90
4795;DHT22;2411;47.060;15.064;2023-08-31T13:20:05;21.10;99.90
4795;DHT22;2411;47.060;15.064;2023-08-31T13:22:32;21.20;99.90
4795;DHT22;2411;47.060;15.064;2023-08-31T13:25:00;21.60;99.90
4795;DHT22;2411;47.060;15.064;2023-08-31T13:27:27;21.40;99.90
4795;DHT22;2411;47.060;15.064;2023-08-31T13:29:54;21.40;99.90
4795;DHT22;2411;47.060;15.064;2023-08-31T13:32:21;21.70;99.90
4795;DHT22;2411;47.060;15.064;2023-08-31T13:34:48;21.40;99.90
4795;DHT22;2411;47.060;15.064;2023-08-31T13:37:16;21.60;99.90
4795;DHT22;2411;47.060;15.064;2023-08-31T13:39:43;21.30;99.90
4795;DHT22;2411;47.060;15.064;2023-08-31T13:42:10;21.30;99.90
4795;DHT22;2411;47.060;15.064;2023-08-31T13:44:38;21.50;99.90
4795;DHT22;2411;47.060;15.064;2023-08-31T13:47:05;21.20;99.90
4795;DHT22;2411;47.060;15.064;2023-08-31T13:49:34;21.00;99.90
4795;DHT22;2411;47.060;15.064;2023-08-31T13:52:01;20.80;99.90
4795;DHT22;2411;47.060;15.064;2023-08-31T13:54:30;21.00;99.90
4795;DHT22;2411;47.060;15.064;2023-08-31T13:56:57;21.20;99.90
4795;DHT22;2411;47.060;15.064;2023-08-31T13:59:24;21.50;99.90
4795;DHT22;2411;47.060;15.064;2023-08-31T14:01:54;21.80;99.90
4795;DHT22;2411;47.060;15.064;2023-08-31T14:04:22;21.60;99.90
4795;DHT22;2411;47.060;15.064;2023-08-31T14:06:49;22.10;99.90
4795;DHT22;2411;47.060;15.064;2023-08-31T14:09:16;22.10;99.90
4795;DHT22;2411;47.060;15.064;2023-08-31T14:11:45;21.90;99.90
4795;DHT22;2411;47.060;15.064;2023-08-31T14:14:13;22.20;99.90
4795;DHT22;2411;47.060;15.064;2023-08-31T14:16:41;22.20;99.90
4795;DHT22;2411;47.060;15.064;2023-08-31T14:19:08;21.70;99.90
4795;DHT22;2411;47.060;15.064;2023-08-31T14:21:36;21.90;99.90
4795;DHT22;2411;47.060;15.064;2023-08-31T14:24:03;21.50;99.90
4795;DHT22;2411;47.060;15.064;2023-08-31T14:26:31;21.20;99.90
4795;DHT22;2411;47.060;15.064;2023-08-31T14:28:58;21.10;99.90
4795;DHT22;2411;47.060;15.064;2023-08-31T14:31:25;21.30;99.90
4795;DHT22;2411;47.060;15.064;2023-08-31T14:33:53;20.80;99.90
4795;DHT22;2411;47.060;15.064;2023-08-31T14:36:22;21.10;99.90
4795;DHT22;2411;47.060;15.064;2023-08-31T14:38:49;21.10;99.90
4795;DHT22;2411;47.060;15.064;2023-08-31T14:41:17;20.90;99.90
4795;DHT22;2411;47.060;15.064;2023-08-31T14:43:44;21.10;99.90
4795;DHT22;2411;47.060;15.064;2023-08-31T14:46:11;20.80;99.90
4795;DHT22;2411;47.060;15.064;2023-08-31T14:48:38;21.20;99.90
4795;DHT22;2411;47.060;15.064;2023-08-31T14:51:06;21.20;99.90
4795;DHT22;2411;47.060;15.064;2023-08-31T14:53:33;21.30;99.90
4795;DHT22;2411;47.060;15.064;2023-08-31T14:56:00;21.30;99.90
4795;DHT22;2411;47.060;15.064;2023-08-31T14:58:27;21.80;99.90
4795;DHT22;2411;47.060;15.064;2023-08-31T15:00:57;21.70;99.90
4795;DHT22;2411;47.060;15.064;2023-08-31T15:03:25;21.90;99.90
4795;DHT22;2411;47.060;15.064;2023-08-31T15:05:52;21.70;99.90
4795;DHT22;2411;47.060;15.064;2023-08-31T15:08:22;21.70;99.90
4795;DHT22;2411;47.060;15.064;2023-08-31T15:11:02;21.30;99.90
4795;DHT22;2411;47.060;15.064;2023-08-31T15:13:29;21.30;99.90
4795;DHT22;2411;47.060;15.064;2023-08-31T15:15:57;20.90;99.90
4795;DHT22;2411;47.060;15.064;2023-08-31T15:18:28;20.70;99.90
4795;DHT22;2411;47.060;15.064;2023-08-31T15:20:55;20.50;99.90
4795;DHT22;2411;47.060;15.064;2023-08-31T15:23:22;20.70;99.90
4795;DHT22;2411;47.060;15.064;2023-08-31T15:25:49;20.10;99.90
4795;DHT22;2411;47.060;15.064;2023-08-31T15:28:16;19.90;99.90
4795;DHT22;2411;47.060;15.064;2023-08-31T15:30:43;20.00;99.90
4795;DHT22;2411;47.060;15.064;2023-08-31T15:33:11;19.70;99.90
4795;DHT22;2411;47.060;15.064;2023-08-31T15:35:38;19.70;99.90
4795;DHT22;2411;47.060;15.064;2023-08-31T15:38:05;19.90;99.90
4795;DHT22;2411;47.060;15.064;2023-08-31T15:40:32;20.00;99.90
4795;DHT22;2411;47.060;15.064;2023-08-31T15:43:00;20.00;99.90
4795;DHT22;2411;47.060;15.064;2023-08-31T15:45:27;19.80;99.90
4795;DHT22;2411;47.060;15.064;2023-08-31T15:47:55;19.60;99.90
4795;DHT22;2411;47.060;15.064;2023-08-31T15:50:22;19.50;99.90
4795;DHT22;2411;47.060;15.064;2023-08-31T15:52:49;19.30;99.90
4795;DHT22;2411;47.060;15.064;2023-08-31T15:55:17;19.50;99.90
4795;DHT22;2411;47.060;15.064;2023-08-31T15:57:44;19.50;99.90
4795;DHT22;2411;47.060;15.064;2023-08-31T16:00:11;19.40;99.90
4795;DHT22;2411;47.060;15.064;2023-08-31T16:02:39;19.70;99.90
4795;DHT22;2411;47.060;15.064;2023-08-31T16:05:07;19.60;99.90
4795;DHT22;2411;47.060;15.064;2023-08-31T16:07:35;19.30;99.90
4795;DHT22;2411;47.060;15.064;2023-08-31T16:10:05;19.10;99.90
4795;DHT22;2411;47.060;15.064;2023-08-31T16:12:32;19.30;99.90